PWSweather.com
Personal Weather Stations
Station Observations
SEVANL01
SevillaES 41004

SevillaES 41004

Lat: 37.383633, Lon: -5.985787

Elevation: 19.685

Station Type: Davis Vantage Pro2

www.tiempoensevilla.es

High Low Average
Temperature 68.8°F20.4°C 62.5°F16.9°C 64.3°F17.9°C
Dew Point 61.0°F16.1°C 55.5°F13.1°C 57.9°F14.4°C
Winds 6.6 mph 10.6 kmh 2.1 mph 3.4 kmh 4.0 mph SW6.4 kmh SW
Wind Gusts 15.0 mph24.1 kmh 6.0 mph9.7 kmh 11.0 mph17.7 kmh
Humidity 91% 64% 80%
Pressure 30.02 in1016.6 mb 29.91 in1012.9 mb -
Precipitation 0.06 in1.5 mm - -
Hour Temp Dew Point Humidity Winds Wind Gusts Pressure Precip Precip Rate Daily Precip Total
12:00 AM 62.9°F17.2°C 56.3°F13.5°C 79% 3.1 mph SW5.0 kmh SW 8.0 mph12.9 kmh 30.02 in1016.6 mb 0.00 in0.0 mm 0.00 in0.0 mm 0.00 in0.0 mm
12:20 AM 62.8°F17.1°C 56.5°F13.6°C 80% 3.1 mph SW5.0 kmh SW 7.0 mph11.3 kmh 30.01 in1016.3 mb 0.00 in0.0 mm 0.00 in0.0 mm 0.00 in0.0 mm
12:40 AM 62.6°F17.0°C 56.7°F13.7°C 81% 3.0 mph SW4.8 kmh SW 7.0 mph11.3 kmh 30.01 in1016.3 mb 0.00 in0.0 mm 0.00 in0.0 mm 0.00 in0.0 mm
01:00 AM 62.7°F17.1°C 56.8°F13.8°C 81% 3.1 mph SW5.0 kmh SW 8.0 mph12.9 kmh 30.00 in1015.9 mb 0.00 in0.0 mm 0.00 in0.0 mm 0.00 in0.0 mm
01:20 AM 62.7°F17.1°C 56.8°F13.8°C 81% 3.3 mph SW5.3 kmh SW 9.0 mph14.5 kmh 30.00 in1015.9 mb 0.00 in0.0 mm 0.00 in0.0 mm 0.00 in0.0 mm
01:40 AM 62.6°F17.0°C 57.0°F13.9°C 82% 3.0 mph SW4.8 kmh SW 8.0 mph12.9 kmh 29.99 in1015.6 mb 0.00 in0.0 mm 0.00 in0.0 mm 0.00 in0.0 mm
02:00 AM 62.6°F17.0°C 57.0°F13.9°C 82% 3.4 mph SW5.5 kmh SW 10.0 mph16.1 kmh 29.99 in1015.6 mb 0.00 in0.0 mm 0.00 in0.0 mm 0.00 in0.0 mm
02:20 AM 62.7°F17.1°C 57.1°F13.9°C 82% 3.9 mph SW6.3 kmh SW 8.0 mph12.9 kmh 29.99 in1015.6 mb 0.00 in0.0 mm 0.00 in0.0 mm 0.00 in0.0 mm
02:40 AM 62.8°F17.1°C 57.6°F14.2°C 83% 3.8 mph SW6.1 kmh SW 9.0 mph14.5 kmh 29.98 in1015.2 mb 0.00 in0.0 mm 0.00 in0.0 mm 0.00 in0.0 mm
03:00 AM 63.1°F17.3°C 57.5°F14.2°C 82% 3.0 mph SW4.8 kmh SW 7.0 mph11.3 kmh 29.97 in1014.9 mb 0.00 in0.0 mm 0.00 in0.0 mm 0.00 in0.0 mm
03:20 AM 63.1°F17.3°C 57.9°F14.4°C 83% 3.3 mph SSW5.3 kmh SSW 8.0 mph12.9 kmh 29.96 in1014.6 mb 0.00 in0.0 mm 0.00 in0.0 mm 0.00 in0.0 mm
03:40 AM 63.1°F17.3°C 57.9°F14.4°C 83% 4.0 mph SW6.4 kmh SW 9.0 mph14.5 kmh 29.96 in1014.6 mb 0.00 in0.0 mm 0.00 in0.0 mm 0.00 in0.0 mm
04:00 AM 62.9°F17.2°C 57.7°F14.3°C 83% 4.1 mph SW6.6 kmh SW 10.0 mph16.1 kmh 29.96 in1014.6 mb 0.00 in0.0 mm 0.00 in0.0 mm 0.00 in0.0 mm
04:20 AM 63.0°F17.2°C 57.8°F14.3°C 83% 3.7 mph SW6.0 kmh SW 9.0 mph14.5 kmh 29.96 in1014.6 mb 0.00 in0.0 mm 0.00 in0.0 mm 0.00 in0.0 mm
04:40 AM 63.1°F17.3°C 57.9°F14.4°C 83% 3.2 mph SSW5.1 kmh SSW 7.0 mph11.3 kmh 29.96 in1014.6 mb 0.00 in0.0 mm 0.00 in0.0 mm 0.00 in0.0 mm
05:00 AM 63.1°F17.3°C 57.9°F14.4°C 83% 3.3 mph SSW5.3 kmh SSW 7.0 mph11.3 kmh 29.95 in1014.2 mb 0.00 in0.0 mm 0.00 in0.0 mm 0.00 in0.0 mm
05:20 AM 63.2°F17.3°C 57.6°F14.2°C 82% 3.7 mph SW6.0 kmh SW 10.0 mph16.1 kmh 29.95 in1014.2 mb 0.00 in0.0 mm 0.00 in0.0 mm 0.00 in0.0 mm
05:40 AM 63.2°F17.3°C 57.6°F14.2°C 82% 4.0 mph SSW6.4 kmh SSW 10.0 mph16.1 kmh 29.95 in1014.2 mb 0.00 in0.0 mm 0.00 in0.0 mm 0.00 in0.0 mm
06:00 AM 63.2°F17.3°C 57.6°F14.2°C 82% 5.0 mph SW8.0 kmh SW 10.0 mph16.1 kmh 29.95 in1014.2 mb 0.00 in0.0 mm 0.00 in0.0 mm 0.00 in0.0 mm
06:20 AM 63.4°F17.4°C 57.8°F14.3°C 82% 3.0 mph SSW4.8 kmh SSW 10.0 mph16.1 kmh 29.95 in1014.2 mb 0.00 in0.0 mm 0.00 in0.0 mm 0.00 in0.0 mm
06:40 AM 63.4°F17.4°C 57.8°F14.3°C 82% 3.9 mph SSW6.3 kmh SSW 12.0 mph19.3 kmh 29.95 in1014.2 mb 0.00 in0.0 mm 0.00 in0.0 mm 0.00 in0.0 mm
07:00 AM 63.5°F17.5°C 57.9°F14.4°C 82% 4.2 mph SSW6.8 kmh SSW 13.0 mph20.9 kmh 29.95 in1014.2 mb 0.00 in0.0 mm 0.00 in0.0 mm 0.00 in0.0 mm
07:20 AM 63.5°F17.5°C 57.9°F14.4°C 82% 3.3 mph SSW5.3 kmh SSW 10.0 mph16.1 kmh 29.95 in1014.2 mb 0.00 in0.0 mm 0.00 in0.0 mm 0.00 in0.0 mm
07:40 AM 63.2°F17.3°C 57.6°F14.2°C 82% 4.5 mph SSW7.2 kmh SSW 12.0 mph19.3 kmh 29.95 in1014.2 mb 0.00 in0.0 mm 0.00 in0.0 mm 0.00 in0.0 mm
08:00 AM 63.6°F17.6°C 57.3°F14.1°C 80% 4.0 mph SSW6.4 kmh SSW 10.0 mph16.1 kmh 29.95 in1014.2 mb 0.00 in0.0 mm 0.00 in0.0 mm 0.00 in0.0 mm
08:20 AM 64.1°F17.8°C 57.5°F14.2°C 79% 5.7 mph SSW9.2 kmh SSW 15.0 mph24.1 kmh 29.95 in1014.2 mb 0.00 in0.0 mm 0.00 in0.0 mm 0.00 in0.0 mm
08:40 AM 64.3°F17.9°C 57.6°F14.2°C 79% 6.0 mph SSW9.7 kmh SSW 15.0 mph24.1 kmh 29.96 in1014.6 mb 0.00 in0.0 mm 0.00 in0.0 mm 0.00 in0.0 mm
09:00 AM 63.7°F17.6°C 57.8°F14.3°C 81% 5.6 mph SSW9.0 kmh SSW 13.0 mph20.9 kmh 29.96 in1014.6 mb 0.00 in0.0 mm 0.00 in0.0 mm 0.00 in0.0 mm
09:20 AM 63.2°F17.3°C 58.6°F14.8°C 85% 6.2 mph SSW10.0 kmh SSW 12.0 mph19.3 kmh 29.96 in1014.6 mb 0.00 in0.0 mm 0.00 in0.0 mm 0.00 in0.0 mm
09:40 AM 62.7°F17.1°C 59.1°F15.1°C 88% 5.8 mph SW9.3 kmh SW 13.0 mph20.9 kmh 29.96 in1014.6 mb 0.00 in0.0 mm 0.00 in0.0 mm 0.00 in0.0 mm
10:00 AM 62.7°F17.1°C 59.1°F15.1°C 88% 4.4 mph SSW7.1 kmh SSW 9.0 mph14.5 kmh 29.96 in1014.6 mb 0.00 in0.0 mm 0.00 in0.0 mm 0.00 in0.0 mm
10:20 AM 63.0°F17.2°C 59.7°F15.4°C 89% 5.0 mph SSW8.0 kmh SSW 13.0 mph20.9 kmh 29.96 in1014.6 mb 0.00 in0.0 mm 0.00 in0.0 mm 0.00 in0.0 mm
10:40 AM 63.1°F17.3°C 59.8°F15.4°C 89% 4.0 mph SSW6.4 kmh SSW 13.0 mph20.9 kmh 29.96 in1014.6 mb 0.00 in0.0 mm 0.00 in0.0 mm 0.00 in0.0 mm
11:00 AM 63.2°F17.3°C 60.2°F15.7°C 90% 5.7 mph SSW9.2 kmh SSW 12.0 mph19.3 kmh 29.96 in1014.6 mb 0.01 in0.3 mm 0.02 in0.5 mm 0.01 in0.3 mm
11:20 AM 63.4°F17.4°C 60.4°F15.8°C 90% 5.2 mph SSW8.4 kmh SSW 12.0 mph19.3 kmh 29.96 in1014.6 mb 0.02 in0.5 mm 0.03 in0.8 mm 0.02 in0.5 mm
11:40 AM 63.6°F17.6°C 60.9°F16.1°C 91% 5.8 mph SSW9.3 kmh SSW 15.0 mph24.1 kmh 29.96 in1014.6 mb 0.02 in0.5 mm 0.00 in0.0 mm 0.02 in0.5 mm
12:00 PM 63.7°F17.6°C 61.0°F16.1°C 91% 5.3 mph SSW8.5 kmh SSW 15.0 mph24.1 kmh 29.96 in1014.6 mb 0.02 in0.5 mm 0.00 in0.0 mm 0.03 in0.8 mm
12:20 PM 63.2°F17.3°C 60.2°F15.7°C 90% 4.5 mph W7.2 kmh W 9.0 mph14.5 kmh 29.96 in1014.6 mb 0.03 in0.8 mm 0.03 in0.8 mm 0.05 in1.3 mm
12:40 PM 63.5°F17.5°C 60.5°F15.8°C 90% 4.7 mph WSW7.6 kmh WSW 10.0 mph16.1 kmh 29.96 in1014.6 mb 0.03 in0.8 mm 0.00 in0.0 mm 0.06 in1.5 mm
01:00 PM 64.0°F17.8°C 60.7°F15.9°C 89% 4.4 mph SW7.1 kmh SW 11.0 mph17.7 kmh 29.96 in1014.6 mb 0.02 in0.5 mm 0.00 in0.0 mm 0.06 in1.5 mm
01:20 PM 63.5°F17.5°C 60.2°F15.7°C 89% 4.3 mph SW6.9 kmh SW 15.0 mph24.1 kmh 29.96 in1014.6 mb 0.01 in0.3 mm 0.00 in0.0 mm 0.06 in1.5 mm
01:40 PM 63.8°F17.7°C 59.5°F15.3°C 86% 4.0 mph SW6.4 kmh SW 10.0 mph16.1 kmh 29.95 in1014.2 mb 0.00 in0.0 mm 0.00 in0.0 mm 0.06 in1.5 mm
02:00 PM 64.8°F18.2°C 59.2°F15.1°C 82% 4.7 mph SW7.6 kmh SW 11.0 mph17.7 kmh 29.95 in1014.2 mb 0.00 in0.0 mm 0.00 in0.0 mm 0.06 in1.5 mm
02:20 PM 64.9°F18.3°C 58.9°F14.9°C 81% 6.0 mph SW9.7 kmh SW 11.0 mph17.7 kmh 29.95 in1014.2 mb 0.00 in0.0 mm 0.00 in0.0 mm 0.06 in1.5 mm
02:40 PM 65.1°F18.4°C 58.4°F14.7°C 79% 4.2 mph SW6.8 kmh SW 12.0 mph19.3 kmh 29.95 in1014.2 mb 0.00 in0.0 mm 0.00 in0.0 mm 0.06 in1.5 mm
03:00 PM 65.7°F18.7°C 58.7°F14.8°C 78% 4.6 mph SW7.4 kmh SW 9.0 mph14.5 kmh 29.94 in1013.9 mb 0.00 in0.0 mm 0.00 in0.0 mm 0.06 in1.5 mm
03:20 PM 66.2°F19.0°C 58.4°F14.7°C 76% 4.9 mph SW7.9 kmh SW 11.0 mph17.7 kmh 29.94 in1013.9 mb 0.00 in0.0 mm 0.00 in0.0 mm 0.06 in1.5 mm
03:40 PM 66.6°F19.2°C 58.8°F14.9°C 76% 4.2 mph SW6.8 kmh SW 12.0 mph19.3 kmh 29.93 in1013.5 mb 0.00 in0.0 mm 0.00 in0.0 mm 0.06 in1.5 mm
04:00 PM 66.6°F19.2°C 58.4°F14.7°C 75% 5.4 mph SSW8.7 kmh SSW 11.0 mph17.7 kmh 29.93 in1013.5 mb 0.00 in0.0 mm 0.00 in0.0 mm 0.06 in1.5 mm
04:20 PM 67.2°F19.6°C 58.2°F14.6°C 73% 4.7 mph SSW7.6 kmh SSW 12.0 mph19.3 kmh 29.93 in1013.5 mb 0.00 in0.0 mm 0.00 in0.0 mm 0.06 in1.5 mm
04:40 PM 66.7°F19.3°C 57.8°F14.3°C 73% 5.8 mph SSW9.3 kmh SSW 12.0 mph19.3 kmh 29.92 in1013.2 mb 0.01 in0.3 mm 0.03 in0.8 mm 0.06 in1.5 mm
05:00 PM 66.7°F19.3°C 57.4°F14.1°C 72% 5.1 mph SW8.2 kmh SW 11.0 mph17.7 kmh 29.92 in1013.2 mb 0.01 in0.3 mm 0.00 in0.0 mm 0.06 in1.5 mm
05:20 PM 66.6°F19.2°C 57.3°F14.1°C 72% 6.6 mph SW10.6 kmh SW 15.0 mph24.1 kmh 29.92 in1013.2 mb 0.01 in0.3 mm 0.00 in0.0 mm 0.06 in1.5 mm
05:40 PM 66.6°F19.2°C 58.1°F14.5°C 74% 5.5 mph SW8.9 kmh SW 12.0 mph19.3 kmh 29.92 in1013.2 mb 0.00 in0.0 mm 0.00 in0.0 mm 0.06 in1.5 mm
06:00 PM 67.8°F19.9°C 58.8°F14.9°C 73% 5.4 mph SSW8.7 kmh SSW 11.0 mph17.7 kmh 29.91 in1012.9 mb 0.00 in0.0 mm 0.00 in0.0 mm 0.06 in1.5 mm
06:20 PM 68.1°F20.1°C 58.7°F14.8°C 72% 6.0 mph SSW9.7 kmh SSW 15.0 mph24.1 kmh 29.91 in1012.9 mb 0.00 in0.0 mm 0.00 in0.0 mm 0.06 in1.5 mm
06:40 PM 68.8°F20.4°C 57.8°F14.3°C 68% 4.6 mph SW7.4 kmh SW 15.0 mph24.1 kmh 29.91 in1012.9 mb 0.00 in0.0 mm 0.00 in0.0 mm 0.06 in1.5 mm
07:00 PM 68.4°F20.2°C 57.0°F13.9°C 67% 6.0 mph SSW9.7 kmh SSW 13.0 mph20.9 kmh 29.91 in1012.9 mb 0.00 in0.0 mm 0.00 in0.0 mm 0.06 in1.5 mm
07:20 PM 68.6°F20.3°C 55.9°F13.3°C 64% 6.4 mph SW10.3 kmh SW 15.0 mph24.1 kmh 29.91 in1012.9 mb 0.00 in0.0 mm 0.00 in0.0 mm 0.06 in1.5 mm
07:40 PM 68.1°F20.1°C 55.9°F13.3°C 65% 4.7 mph SW7.6 kmh SW 10.0 mph16.1 kmh 29.91 in1012.9 mb 0.00 in0.0 mm 0.00 in0.0 mm 0.06 in1.5 mm
08:00 PM 67.4°F19.7°C 56.5°F13.6°C 68% 4.7 mph SW7.6 kmh SW 12.0 mph19.3 kmh 29.91 in1012.9 mb 0.00 in0.0 mm 0.00 in0.0 mm 0.06 in1.5 mm
08:20 PM 66.7°F19.3°C 55.8°F13.2°C 68% 4.8 mph SW7.7 kmh SW 9.0 mph14.5 kmh 29.91 in1012.9 mb 0.00 in0.0 mm 0.00 in0.0 mm 0.06 in1.5 mm
08:40 PM 66.0°F18.9°C 55.5°F13.1°C 69% 3.7 mph SW6.0 kmh SW 8.0 mph12.9 kmh 29.92 in1013.2 mb 0.00 in0.0 mm 0.00 in0.0 mm 0.06 in1.5 mm
09:00 PM 65.3°F18.5°C 55.7°F13.2°C 71% 3.0 mph SW4.8 kmh SW 7.0 mph11.3 kmh 29.92 in1013.2 mb 0.00 in0.0 mm 0.00 in0.0 mm 0.06 in1.5 mm
09:20 PM 64.8°F18.2°C 55.9°F13.3°C 73% 3.0 mph SW4.8 kmh SW 9.0 mph14.5 kmh 29.93 in1013.5 mb 0.00 in0.0 mm 0.00 in0.0 mm 0.06 in1.5 mm
09:40 PM 64.4°F18.0°C 56.3°F13.5°C 75% 3.4 mph SW5.5 kmh SW 10.0 mph16.1 kmh 29.93 in1013.5 mb 0.00 in0.0 mm 0.00 in0.0 mm 0.06 in1.5 mm
10:00 PM 63.7°F17.6°C 56.0°F13.3°C 76% 4.3 mph SW6.9 kmh SW 8.0 mph12.9 kmh 29.95 in1014.2 mb 0.00 in0.0 mm 0.00 in0.0 mm 0.06 in1.5 mm
10:20 PM 63.4°F17.4°C 56.4°F13.6°C 78% 4.6 mph SW7.4 kmh SW 10.0 mph16.1 kmh 29.95 in1014.2 mb 0.00 in0.0 mm 0.00 in0.0 mm 0.06 in1.5 mm
10:40 PM 62.9°F17.2°C 56.6°F13.7°C 80% 3.0 mph SW4.8 kmh SW 8.0 mph12.9 kmh 29.95 in1014.2 mb 0.00 in0.0 mm 0.00 in0.0 mm 0.06 in1.5 mm
11:00 PM 62.7°F17.1°C 56.8°F13.8°C 81% 2.7 mph SW4.3 kmh SW 8.0 mph12.9 kmh 29.96 in1014.6 mb 0.00 in0.0 mm 0.00 in0.0 mm 0.04 in1.0 mm
11:20 PM 62.7°F17.1°C 57.1°F13.9°C 82% 2.1 mph SW3.4 kmh SW 6.0 mph9.7 kmh 29.96 in1014.6 mb 0.00 in0.0 mm 0.00 in0.0 mm 0.04 in1.0 mm
11:40 PM 62.5°F16.9°C 57.3°F14.1°C 83% 3.0 mph SW4.8 kmh SW 7.0 mph11.3 kmh 29.95 in1014.2 mb 0.00 in0.0 mm 0.00 in0.0 mm 0.04 in1.0 mm